sensor_id;sensor_type;location;lat;lon;timestamp;pressure;altitude;pressure_sealevel;temperature;humidity
36932;BME280;22847;42.654;23.370;2023-01-26T00:00:03;95208.69;;;0.97;74.52
36932;BME280;22847;42.654;23.370;2023-01-26T00:02:28;94948.50;;;-0.55;74.95
36932;BME280;22847;42.654;23.370;2023-01-26T00:04:54;95182.00;;;0.65;76.81
36932;BME280;22847;42.654;23.370;2023-01-26T00:07:19;94898.66;;;-1.03;76.10
36932;BME280;22847;42.654;23.370;2023-01-26T00:09:45;95196.47;;;0.85;75.83
36932;BME280;22847;42.654;23.370;2023-01-26T00:12:10;94867.53;;;-1.12;76.34
36932;BME280;22847;42.654;23.370;2023-01-26T00:14:35;95186.50;;;1.30;74.97
36932;BME280;22847;42.654;23.370;2023-01-26T00:17:15;94972.94;;;-0.85;76.63
36932;BME280;22847;42.654;23.370;2023-01-26T00:19:40;95214.50;;;0.29;77.92
36932;BME280;22847;42.654;23.370;2023-01-26T00:22:06;95156.69;;;0.40;76.57
36932;BME280;22847;42.654;23.370;2023-01-26T00:24:31;95209.34;;;0.83;76.14
36932;BME280;22847;42.654;23.370;2023-01-26T00:26:56;95172.72;;;0.27;76.67
36932;BME280;22847;42.654;23.370;2023-01-26T00:29:22;95162.59;;;0.77;75.58
36932;BME280;22847;42.654;23.370;2023-01-26T00:31:47;94962.78;;;-0.68;76.23
36932;BME280;22847;42.654;23.370;2023-01-26T00:34:12;95022.81;;;-0.02;75.13
36932;BME280;22847;42.654;23.370;2023-01-26T00:36:38;95171.53;;;1.04;75.17
36932;BME280;22847;42.654;23.370;2023-01-26T00:39:03;95192.66;;;0.75;75.73
36932;BME280;22847;42.654;23.370;2023-01-26T00:41:29;95148.13;;;0.93;75.06
36932;BME280;22847;42.654;23.370;2023-01-26T00:44:12;95216.19;;;0.66;75.23
36932;BME280;22847;42.654;23.370;2023-01-26T00:46:37;95066.19;;;0.03;75.68
36932;BME280;22847;42.654;23.370;2023-01-26T00:49:03;95161.50;;;0.82;75.25
36932;BME280;22847;42.654;23.370;2023-01-26T00:51:28;94779.44;;;-1.80;75.80
36932;BME280;22847;42.654;23.370;2023-01-26T00:53:54;95085.88;;;-0.35;77.65
36932;BME280;22847;42.654;23.370;2023-01-26T00:56:19;94925.28;;;-1.07;77.03
36932;BME280;22847;42.654;23.370;2023-01-26T00:58:45;95095.69;;;-0.26;78.08
36932;BME280;22847;42.654;23.370;2023-01-26T01:01:11;94859.28;;;-1.36;76.55
36932;BME280;22847;42.654;23.370;2023-01-26T01:03:36;95049.75;;;-0.29;76.52
36932;BME280;22847;42.654;23.370;2023-01-26T01:06:01;94844.06;;;-1.58;77.13
36932;BME280;22847;42.654;23.370;2023-01-26T01:08:27;95170.44;;;0.57;76.08
36932;BME280;22847;42.654;23.370;2023-01-26T01:11:05;95169.59;;;0.39;75.68
36932;BME280;22847;42.654;23.370;2023-01-26T01:13:31;95198.41;;;0.44;75.52
36932;BME280;22847;42.654;23.370;2023-01-26T01:15:56;95143.69;;;0.26;76.40
36932;BME280;22847;42.654;23.370;2023-01-26T01:18:22;95077.69;;;-0.06;76.73
36932;BME280;22847;42.654;23.370;2023-01-26T01:20:47;95066.22;;;-0.35;76.07
36932;BME280;22847;42.654;23.370;2023-01-26T01:23:12;95103.94;;;0.35;75.32
36932;BME280;22847;42.654;23.370;2023-01-26T01:25:38;95145.41;;;0.26;75.23
36932;BME280;22847;42.654;23.370;2023-01-26T01:28:03;95172.88;;;0.41;75.45
36932;BME280;22847;42.654;23.370;2023-01-26T01:30:28;95078.88;;;-0.13;76.26
36932;BME280;22847;42.654;23.370;2023-01-26T01:32:54;95123.59;;;0.17;75.84
36932;BME280;22847;42.654;23.370;2023-01-26T01:35:19;94831.00;;;-1.52;74.96
36932;BME280;22847;42.654;23.370;2023-01-26T01:37:45;95132.56;;;0.44;74.70
36932;BME280;22847;42.654;23.370;2023-01-26T01:40:11;94903.44;;;-0.95;74.85
36932;BME280;22847;42.654;23.370;2023-01-26T01:42:37;95112.31;;;0.38;74.88
36932;BME280;22847;42.654;23.370;2023-01-26T01:47:51;94851.56;;;-0.99;73.81
36932;BME280;22847;42.654;23.370;2023-01-26T01:50:17;95163.78;;;0.35;73.92
36932;BME280;22847;42.654;23.370;2023-01-26T01:52:44;95136.31;;;0.19;74.44
36932;BME280;22847;42.654;23.370;2023-01-26T01:55:11;95129.25;;;0.24;74.73
36932;BME280;22847;42.654;23.370;2023-01-26T01:57:43;95181.63;;;0.18;75.71
36932;BME280;22847;42.654;23.370;2023-01-26T02:00:21;95130.72;;;0.47;74.23
36932;BME280;22847;42.654;23.370;2023-01-26T02:03:07;95109.38;;;0.46;74.18
36932;BME280;22847;42.654;23.370;2023-01-26T02:06:08;95083.63;;;0.13;74.59
36932;BME280;22847;42.654;23.370;2023-01-26T02:08:39;95086.56;;;0.23;74.37
36932;BME280;22847;42.654;23.370;2023-01-26T02:11:09;94875.16;;;-0.92;74.42
36932;BME280;22847;42.654;23.370;2023-01-26T02:13:36;95118.81;;;0.45;74.10
36932;BME280;22847;42.654;23.370;2023-01-26T02:16:02;95097.41;;;0.64;72.95
36932;BME280;22847;42.654;23.370;2023-01-26T02:18:28;95102.00;;;0.57;73.56
36932;BME280;22847;42.654;23.370;2023-01-26T02:20:59;95084.78;;;0.59;73.73
36932;BME280;22847;42.654;23.370;2023-01-26T02:26:07;95027.00;;;0.18;74.44
36932;BME280;22847;42.654;23.370;2023-01-26T02:28:33;95013.25;;;0.19;73.99
36932;BME280;22847;42.654;23.370;2023-01-26T02:30:58;95103.75;;;0.57;73.32
36932;BME280;22847;42.654;23.370;2023-01-26T02:33:29;95004.22;;;0.29;73.65
36932;BME280;22847;42.654;23.370;2023-01-26T02:35:55;94912.00;;;-0.24;73.24
36932;BME280;22847;42.654;23.370;2023-01-26T02:38:24;95065.59;;;0.32;74.59
36932;BME280;22847;42.654;23.370;2023-01-26T02:41:14;95060.63;;;0.12;75.92
36932;BME280;22847;42.654;23.370;2023-01-26T02:44:01;95050.31;;;0.13;75.83
36932;BME280;22847;42.654;23.370;2023-01-26T02:46:28;95010.44;;;-0.11;75.95
36932;BME280;22847;42.654;23.370;2023-01-26T02:48:53;95091.66;;;0.41;74.63
36932;BME280;22847;42.654;23.370;2023-01-26T02:51:37;95020.59;;;0.26;74.18
36932;BME280;22847;42.654;23.370;2023-01-26T02:54:03;95102.88;;;0.22;75.05
36932;BME280;22847;42.654;23.370;2023-01-26T02:56:28;94995.09;;;0.06;74.50
36932;BME280;22847;42.654;23.370;2023-01-26T02:58:54;95050.16;;;0.51;74.12
36932;BME280;22847;42.654;23.370;2023-01-26T03:01:20;95030.97;;;0.23;75.06
36932;BME280;22847;42.654;23.370;2023-01-26T03:03:45;95033.25;;;0.12;75.63
36932;BME280;22847;42.654;23.370;2023-01-26T03:06:12;95022.56;;;0.21;75.58
36932;BME280;22847;42.654;23.370;2023-01-26T03:08:38;94974.03;;;-0.18;75.74
36932;BME280;22847;42.654;23.370;2023-01-26T03:11:05;94780.03;;;-1.55;75.75
36932;BME280;22847;42.654;23.370;2023-01-26T03:13:31;95033.31;;;0.28;74.83
36932;BME280;22847;42.654;23.370;2023-01-26T03:15:56;95017.88;;;0.81;72.39
36932;BME280;22847;42.654;23.370;2023-01-26T03:18:27;94999.38;;;0.06;74.03
36932;BME280;22847;42.654;23.370;2023-01-26T03:21:11;95017.41;;;0.90;72.27
36932;BME280;22847;42.654;23.370;2023-01-26T03:23:56;95073.00;;;0.21;73.88
36932;BME280;22847;42.654;23.370;2023-01-26T03:26:40;94881.25;;;-0.41;73.66
36932;BME280;22847;42.654;23.370;2023-01-26T03:29:24;94982.09;;;0.61;73.57
36932;BME280;22847;42.654;23.370;2023-01-26T03:31:53;94994.28;;;0.40;74.27
36932;BME280;22847;42.654;23.370;2023-01-26T03:34:19;94698.84;;;-1.68;74.46
36932;BME280;22847;42.654;23.370;2023-01-26T03:36:45;94942.50;;;-0.37;74.96
36932;BME280;22847;42.654;23.370;2023-01-26T03:39:11;95000.88;;;0.10;74.96
36932;BME280;22847;42.654;23.370;2023-01-26T03:41:56;95041.84;;;0.11;75.11
36932;BME280;22847;42.654;23.370;2023-01-26T03:44:41;95054.06;;;0.23;75.16
36932;BME280;22847;42.654;23.370;2023-01-26T03:47:25;94830.56;;;-0.52;74.53
36932;BME280;22847;42.654;23.370;2023-01-26T03:50:09;94988.50;;;0.00;74.56
36932;BME280;22847;42.654;23.370;2023-01-26T03:52:53;94986.66;;;0.21;75.19
36932;BME280;22847;42.654;23.370;2023-01-26T03:55:37;94934.00;;;-0.03;75.34
36932;BME280;22847;42.654;23.370;2023-01-26T03:58:21;95003.47;;;0.44;74.65
36932;BME280;22847;42.654;23.370;2023-01-26T04:00:48;94706.69;;;-1.18;74.46
36932;BME280;22847;42.654;23.370;2023-01-26T04:03:13;94696.66;;;-1.40;75.24
36932;BME280;22847;42.654;23.370;2023-01-26T04:05:57;95028.75;;;0.52;75.30
36932;BME280;22847;42.654;23.370;2023-01-26T04:08:42;94967.19;;;0.34;75.23
36932;BME280;22847;42.654;23.370;2023-01-26T04:11:08;94997.59;;;0.25;75.92
36932;BME280;22847;42.654;23.370;2023-01-26T04:13:34;94883.44;;;-0.17;75.63
36932;BME280;22847;42.654;23.370;2023-01-26T04:16:18;95017.94;;;0.28;75.88
36932;BME280;22847;42.654;23.370;2023-01-26T04:19:02;94864.44;;;-0.13;74.27
36932;BME280;22847;42.654;23.370;2023-01-26T04:21:46;94954.31;;;0.36;75.04
36932;BME280;22847;42.654;23.370;2023-01-26T04:24:11;94916.25;;;-0.06;76.25
36932;BME280;22847;42.654;23.370;2023-01-26T04:26:41;94667.16;;;-1.47;75.82
36932;BME280;22847;42.654;23.370;2023-01-26T04:29:09;94909.88;;;0.18;75.15
36932;BME280;22847;42.654;23.370;2023-01-26T04:31:35;94928.13;;;0.29;75.10
36932;BME280;22847;42.654;23.370;2023-01-26T04:34:02;94937.84;;;0.06;76.77
36932;BME280;22847;42.654;23.370;2023-01-26T04:36:28;94899.78;;;0.15;75.99
36932;BME280;22847;42.654;23.370;2023-01-26T04:38:54;94646.19;;;-1.19;75.12
36932;BME280;22847;42.654;23.370;2023-01-26T04:41:20;94888.09;;;0.10;75.36
36932;BME280;22847;42.654;23.370;2023-01-26T04:43:45;94628.16;;;-1.87;76.66
36932;BME280;22847;42.654;23.370;2023-01-26T04:46:11;94943.00;;;0.40;75.70
36932;BME280;22847;42.654;23.370;2023-01-26T04:48:37;94948.13;;;0.06;75.74
36932;BME280;22847;42.654;23.370;2023-01-26T04:51:14;94933.94;;;0.33;74.83
36932;BME280;22847;42.654;23.370;2023-01-26T04:53:40;94973.84;;;0.21;75.33
36932;BME280;22847;42.654;23.370;2023-01-26T04:56:07;94959.50;;;0.17;75.02
36932;BME280;22847;42.654;23.370;2023-01-26T04:58:33;94711.94;;;-1.21;75.43
36932;BME280;22847;42.654;23.370;2023-01-26T05:00:59;94894.69;;;-0.02;75.14
36932;BME280;22847;42.654;23.370;2023-01-26T05:03:25;94971.31;;;0.71;73.89
36932;BME280;22847;42.654;23.370;2023-01-26T05:05:52;94709.09;;;-0.98;74.40
36932;BME280;22847;42.654;23.370;2023-01-26T05:08:18;94994.94;;;0.61;74.68
36932;BME280;22847;42.654;23.370;2023-01-26T05:10:44;94669.50;;;-0.74;72.89
36932;BME280;22847;42.654;23.370;2023-01-26T05:13:10;94712.72;;;-0.35;72.51
36932;BME280;22847;42.654;23.370;2023-01-26T05:15:35;94965.50;;;0.51;73.89
36932;BME280;22847;42.654;23.370;2023-01-26T05:18:01;94915.03;;;0.84;73.43
36932;BME280;22847;42.654;23.370;2023-01-26T05:20:27;94643.41;;;-0.98;73.44
36932;BME280;22847;42.654;23.370;2023-01-26T05:22:52;94623.94;;;-1.17;72.76
36932;BME280;22847;42.654;23.370;2023-01-26T05:25:18;94922.81;;;0.50;73.48
36932;BME280;22847;42.654;23.370;2023-01-26T05:27:44;94921.28;;;0.63;73.69
36932;BME280;22847;42.654;23.370;2023-01-26T05:30:10;94906.44;;;0.85;72.95
36932;BME280;22847;42.654;23.370;2023-01-26T05:32:36;94616.50;;;-0.89;71.72
36932;BME280;22847;42.654;23.370;2023-01-26T05:35:02;94912.47;;;1.00;72.10
36932;BME280;22847;42.654;23.370;2023-01-26T05:37:28;94914.50;;;0.77;70.95
36932;BME280;22847;42.654;23.370;2023-01-26T05:39:54;94911.50;;;1.02;72.19
36932;BME280;22847;42.654;23.370;2023-01-26T05:42:20;94914.66;;;1.07;71.39
36932;BME280;22847;42.654;23.370;2023-01-26T05:44:46;94904.66;;;0.70;72.14
36932;BME280;22847;42.654;23.370;2023-01-26T05:47:11;94920.09;;;1.01;72.23
36932;BME280;22847;42.654;23.370;2023-01-26T05:49:37;94901.31;;;0.85;72.24
36932;BME280;22847;42.654;23.370;2023-01-26T05:52:09;94701.69;;;-0.53;72.73
36932;BME280;22847;42.654;23.370;2023-01-26T05:54:35;94703.88;;;-0.62;72.73
36932;BME280;22847;42.654;23.370;2023-01-26T05:57:01;94644.75;;;-1.08;73.34
36932;BME280;22847;42.654;23.370;2023-01-26T05:59:26;94937.59;;;0.77;73.06
36932;BME280;22847;42.654;23.370;2023-01-26T06:01:51;94888.31;;;0.55;73.37
36932;BME280;22847;42.654;23.370;2023-01-26T06:04:17;94640.78;;;-0.96;73.23
36932;BME280;22847;42.654;23.370;2023-01-26T06:06:42;94871.00;;;0.76;72.69
36932;BME280;22847;42.654;23.370;2023-01-26T06:09:08;94622.63;;;-0.92;72.69
36932;BME280;22847;42.654;23.370;2023-01-26T06:11:33;94676.91;;;-0.52;72.68
36932;BME280;22847;42.654;23.370;2023-01-26T06:13:58;94708.00;;;0.06;71.38
36932;BME280;22847;42.654;23.370;2023-01-26T06:16:24;94916.81;;;1.30;70.87
36932;BME280;22847;42.654;23.370;2023-01-26T06:18:49;94903.75;;;1.49;70.35
36932;BME280;22847;42.654;23.370;2023-01-26T06:21:15;94836.34;;;0.52;72.48
36932;BME280;22847;42.654;23.370;2023-01-26T06:23:41;94900.94;;;0.75;73.28
36932;BME280;22847;42.654;23.370;2023-01-26T06:26:06;94928.94;;;0.96;71.96
36932;BME280;22847;42.654;23.370;2023-01-26T06:28:32;94898.91;;;1.13;71.76
36932;BME280;22847;42.654;23.370;2023-01-26T06:31:01;94871.88;;;1.22;71.34
36932;BME280;22847;42.654;23.370;2023-01-26T06:33:28;94783.47;;;0.33;71.89
36932;BME280;22847;42.654;23.370;2023-01-26T06:35:53;94874.22;;;1.11;71.45
36932;BME280;22847;42.654;23.370;2023-01-26T06:38:20;94880.94;;;1.29;70.73
36932;BME280;22847;42.654;23.370;2023-01-26T06:40:45;94796.16;;;0.83;70.42
36932;BME280;22847;42.654;23.370;2023-01-26T06:43:11;94882.59;;;1.75;69.17
36932;BME280;22847;42.654;23.370;2023-01-26T06:45:36;94588.22;;;-0.06;68.34
36932;BME280;22847;42.654;23.370;2023-01-26T06:48:01;94571.84;;;0.12;68.03
36932;BME280;22847;42.654;23.370;2023-01-26T06:50:30;94885.66;;;1.21;70.30
36932;BME280;22847;42.654;23.370;2023-01-26T06:52:58;94832.56;;;1.06;70.28
36932;BME280;22847;42.654;23.370;2023-01-26T06:55:36;94881.56;;;1.48;70.72
36932;BME280;22847;42.654;23.370;2023-01-26T06:58:02;94890.63;;;1.24;70.63
36932;BME280;22847;42.654;23.370;2023-01-26T07:00:27;94873.22;;;1.13;70.24
36932;BME280;22847;42.654;23.370;2023-01-26T07:02:52;94833.56;;;0.87;71.50
36932;BME280;22847;42.654;23.370;2023-01-26T07:05:18;94865.25;;;0.86;72.28
36932;BME280;22847;42.654;23.370;2023-01-26T07:07:43;94933.97;;;0.81;72.50
36932;BME280;22847;42.654;23.370;2023-01-26T07:10:09;94881.84;;;0.97;72.45
36932;BME280;22847;42.654;23.370;2023-01-26T07:12:42;94870.31;;;1.19;72.56
36932;BME280;22847;42.654;23.370;2023-01-26T07:15:09;94870.16;;;1.07;74.19
36932;BME280;22847;42.654;23.370;2023-01-26T07:17:36;94877.69;;;1.10;72.35
36932;BME280;22847;42.654;23.370;2023-01-26T07:20:01;94766.84;;;0.72;71.35
36932;BME280;22847;42.654;23.370;2023-01-26T07:22:27;94757.50;;;0.71;70.87
36932;BME280;22847;42.654;23.370;2023-01-26T07:24:52;94852.41;;;1.33;72.31
36932;BME280;22847;42.654;23.370;2023-01-26T07:27:18;94702.22;;;0.65;70.79
36932;BME280;22847;42.654;23.370;2023-01-26T07:29:43;94862.00;;;2.05;70.15
36932;BME280;22847;42.654;23.370;2023-01-26T07:32:10;94870.09;;;1.54;70.47
36932;BME280;22847;42.654;23.370;2023-01-26T07:34:36;94870.16;;;1.68;70.57
36932;BME280;22847;42.654;23.370;2023-01-26T07:37:01;94774.91;;;1.11;72.73
36932;BME280;22847;42.654;23.370;2023-01-26T07:39:26;94592.91;;;-0.30;71.05
36932;BME280;22847;42.654;23.370;2023-01-26T07:41:52;94853.06;;;1.83;70.25
36932;BME280;22847;42.654;23.370;2023-01-26T07:44:17;94877.22;;;1.94;69.39
36932;BME280;22847;42.654;23.370;2023-01-26T07:46:43;94920.28;;;1.91;69.38
36932;BME280;22847;42.654;23.370;2023-01-26T07:49:08;94751.88;;;1.69;69.63
36932;BME280;22847;42.654;23.370;2023-01-26T07:51:36;94617.75;;;1.06;68.53
36932;BME280;22847;42.654;23.370;2023-01-26T07:54:04;94851.31;;;2.69;67.33
36932;BME280;22847;42.654;23.370;2023-01-26T07:56:29;94867.56;;;2.56;68.68
36932;BME280;22847;42.654;23.370;2023-01-26T07:58:55;94568.16;;;0.32;68.43
36932;BME280;22847;42.654;23.370;2023-01-26T08:01:20;94648.38;;;1.23;67.69
36932;BME280;22847;42.654;23.370;2023-01-26T08:03:49;94753.63;;;1.97;67.66
36932;BME280;22847;42.654;23.370;2023-01-26T08:06:15;94792.19;;;1.53;69.69
36932;BME280;22847;42.654;23.370;2023-01-26T08:08:41;94855.31;;;1.73;69.97
36932;BME280;22847;42.654;23.370;2023-01-26T08:11:07;94836.94;;;1.04;72.28
36932;BME280;22847;42.654;23.370;2023-01-26T08:13:33;94743.00;;;0.70;70.38
36932;BME280;22847;42.654;23.370;2023-01-26T08:16:04;94835.84;;;1.69;71.95
36932;BME280;22847;42.654;23.370;2023-01-26T08:18:30;94747.97;;;0.88;70.57
36932;BME280;22847;42.654;23.370;2023-01-26T08:20:56;94819.75;;;2.09;70.17
36932;BME280;22847;42.654;23.370;2023-01-26T08:23:21;94827.59;;;2.36;68.09
36932;BME280;22847;42.654;23.370;2023-01-26T08:25:47;94584.81;;;0.84;67.08
36932;BME280;22847;42.654;23.370;2023-01-26T08:28:12;94837.00;;;1.63;70.22
36932;BME280;22847;42.654;23.370;2023-01-26T08:30:38;94825.91;;;1.93;69.50
36932;BME280;22847;42.654;23.370;2023-01-26T08:33:04;94730.53;;;1.09;69.60
36932;BME280;22847;42.654;23.370;2023-01-26T08:35:32;94839.69;;;1.62;70.08
36932;BME280;22847;42.654;23.370;2023-01-26T08:37:58;94828.94;;;2.13;68.17
36932;BME280;22847;42.654;23.370;2023-01-26T08:40:24;94825.56;;;2.55;66.98
36932;BME280;22847;42.654;23.370;2023-01-26T08:42:50;94793.19;;;1.66;68.55
36932;BME280;22847;42.654;23.370;2023-01-26T08:45:16;94821.53;;;1.49;70.18
36932;BME280;22847;42.654;23.370;2023-01-26T08:47:41;94792.63;;;1.90;67.73
36932;BME280;22847;42.654;23.370;2023-01-26T08:50:08;94796.56;;;2.25;66.44
36932;BME280;22847;42.654;23.370;2023-01-26T08:52:34;94713.88;;;1.89;65.72
36932;BME280;22847;42.654;23.370;2023-01-26T08:54:59;94815.59;;;1.78;68.99
36932;BME280;22847;42.654;23.370;2023-01-26T08:57:25;94825.44;;;1.56;68.97
36932;BME280;22847;42.654;23.370;2023-01-26T08:59:51;94827.91;;;1.88;67.85
36932;BME280;22847;42.654;23.370;2023-01-26T09:02:16;94530.34;;;0.35;66.69
36932;BME280;22847;42.654;23.370;2023-01-26T09:04:41;94767.75;;;1.76;67.42
36932;BME280;22847;42.654;23.370;2023-01-26T09:07:07;94797.72;;;2.05;66.15
36932;BME280;22847;42.654;23.370;2023-01-26T09:09:32;94812.06;;;2.23;66.16
36932;BME280;22847;42.654;23.370;2023-01-26T09:11:57;94827.94;;;2.02;66.53
36932;BME280;22847;42.654;23.370;2023-01-26T09:14:23;94828.34;;;2.38;65.99
36932;BME280;22847;42.654;23.370;2023-01-26T09:16:49;94805.25;;;2.37;65.93
36932;BME280;22847;42.654;23.370;2023-01-26T09:19:14;94800.84;;;1.96;67.01
36932;BME280;22847;42.654;23.370;2023-01-26T09:21:40;94805.25;;;2.37;66.42
36932;BME280;22847;42.654;23.370;2023-01-26T09:24:05;94500.38;;;0.66;65.74
36932;BME280;22847;42.654;23.370;2023-01-26T09:26:31;94866.06;;;2.80;64.83
36932;BME280;22847;42.654;23.370;2023-01-26T09:28:56;94543.75;;;1.27;64.65
36932;BME280;22847;42.654;23.370;2023-01-26T09:31:22;94715.47;;;2.46;64.25
36932;BME280;22847;42.654;23.370;2023-01-26T09:33:48;94719.09;;;2.30;65.10
36932;BME280;22847;42.654;23.370;2023-01-26T09:36:15;94776.56;;;2.57;65.24
36932;BME280;22847;42.654;23.370;2023-01-26T09:38:40;94704.03;;;1.95;66.11
36932;BME280;22847;42.654;23.370;2023-01-26T09:41:07;94726.91;;;1.57;67.88
36932;BME280;22847;42.654;23.370;2023-01-26T09:44:03;94780.44;;;2.36;66.41
36932;BME280;22847;42.654;23.370;2023-01-26T09:49:14;94779.09;;;2.02;67.55
36932;BME280;22847;42.654;23.370;2023-01-26T09:51:48;94766.31;;;2.29;67.05
36932;BME280;22847;42.654;23.370;2023-01-26T09:56:53;94540.25;;;0.85;67.49
36932;BME280;22847;42.654;23.370;2023-01-26T09:59:29;94704.28;;;1.62;68.34
36932;BME280;22847;42.654;23.370;2023-01-26T10:02:15;94806.16;;;2.64;66.74
36932;BME280;22847;42.654;23.370;2023-01-26T10:04:47;94762.28;;;2.10;67.64
36932;BME280;22847;42.654;23.370;2023-01-26T10:07:14;94472.44;;;0.17;68.60
36932;BME280;22847;42.654;23.370;2023-01-26T10:09:43;94755.81;;;1.89;68.30
36932;BME280;22847;42.654;23.370;2023-01-26T10:12:26;94798.09;;;2.28;67.30
36932;BME280;22847;42.654;23.370;2023-01-26T10:15:27;94757.47;;;2.61;66.17
36932;BME280;22847;42.654;23.370;2023-01-26T10:17:55;94702.56;;;1.77;68.08
36932;BME280;22847;42.654;23.370;2023-01-26T10:20:30;94741.13;;;2.34;67.27
36932;BME280;22847;42.654;23.370;2023-01-26T10:23:04;94690.16;;;1.41;69.19
36932;BME280;22847;42.654;23.370;2023-01-26T10:25:38;94765.00;;;2.21;68.34
36932;BME280;22847;42.654;23.370;2023-01-26T10:28:15;94713.41;;;2.24;67.36
36932;BME280;22847;42.654;23.370;2023-01-26T10:30:43;94721.13;;;1.96;67.26
36932;BME280;22847;42.654;23.370;2023-01-26T10:33:29;94708.63;;;2.33;67.62
36932;BME280;22847;42.654;23.370;2023-01-26T10:35:57;94667.13;;;1.82;67.96
36932;BME280;22847;42.654;23.370;2023-01-26T10:41:00;94694.56;;;2.38;67.57
36932;BME280;22847;42.654;23.370;2023-01-26T10:43:26;94674.13;;;2.35;67.13
36932;BME280;22847;42.654;23.370;2023-01-26T10:45:52;94377.97;;;0.25;68.55
36932;BME280;22847;42.654;23.370;2023-01-26T10:48:20;94662.03;;;2.23;67.80
36932;BME280;22847;42.654;23.370;2023-01-26T10:50:48;94348.44;;;0.75;66.35
36932;BME280;22847;42.654;23.370;2023-01-26T10:53:24;94660.69;;;2.03;68.02
36932;BME280;22847;42.654;23.370;2023-01-26T10:56:11;94573.16;;;1.64;68.04
36932;BME280;22847;42.654;23.370;2023-01-26T11:01:02;94348.00;;;0.68;66.84
36932;BME280;22847;42.654;23.370;2023-01-26T11:03:28;94509.09;;;2.02;66.28
36932;BME280;22847;42.654;23.370;2023-01-26T11:06:05;94671.31;;;2.25;67.34
36932;BME280;22847;42.654;23.370;2023-01-26T11:08:36;94331.13;;;0.78;67.15
36932;BME280;22847;42.654;23.370;2023-01-26T11:11:03;94394.50;;;1.31;66.49
36932;BME280;22847;42.654;23.370;2023-01-26T11:13:31;94611.34;;;2.91;65.63
36932;BME280;22847;42.654;23.370;2023-01-26T11:16:18;94600.03;;;3.19;65.15
36932;BME280;22847;42.654;23.370;2023-01-26T11:18:55;94604.38;;;2.66;65.69
36932;BME280;22847;42.654;23.370;2023-01-26T11:21:57;94603.84;;;2.08;68.21
36932;BME280;22847;42.654;23.370;2023-01-26T11:24:40;94290.59;;;0.14;68.90
36932;BME280;22847;42.654;23.370;2023-01-26T11:27:39;94571.72;;;2.67;67.69
36932;BME280;22847;42.654;23.370;2023-01-26T11:33:11;94585.00;;;2.07;68.73
36932;BME280;22847;42.654;23.370;2023-01-26T11:38:37;94597.81;;;1.95;70.15
36932;BME280;22847;42.654;23.370;2023-01-26T11:47:09;94365.53;;;2.08;65.82
36932;BME280;22847;42.654;23.370;2023-01-26T11:49:50;94549.22;;;3.34;65.34
36932;BME280;22847;42.654;23.370;2023-01-26T11:55:28;94324.69;;;1.91;65.38
36932;BME280;22847;42.654;23.370;2023-01-26T12:01:32;94237.28;;;0.74;66.42
36932;BME280;22847;42.654;23.370;2023-01-26T12:03:59;94367.25;;;1.43;68.02
36932;BME280;22847;42.654;23.370;2023-01-26T12:08:53;94331.97;;;1.32;68.39
36932;BME280;22847;42.654;23.370;2023-01-26T12:11:32;94539.41;;;2.63;68.39
36932;BME280;22847;42.654;23.370;2023-01-26T12:17:15;94306.38;;;1.31;68.05
36932;BME280;22847;42.654;23.370;2023-01-26T12:19:51;94516.25;;;2.88;68.09
36932;BME280;22847;42.654;23.370;2023-01-26T12:22:23;94500.88;;;2.49;68.88
36932;BME280;22847;42.654;23.370;2023-01-26T12:27:44;94424.88;;;2.18;68.34
36932;BME280;22847;42.654;23.370;2023-01-26T12:32:57;94187.63;;;0.75;69.00
36932;BME280;22847;42.654;23.370;2023-01-26T12:35:43;94509.22;;;2.52;69.21
36932;BME280;22847;42.654;23.370;2023-01-26T12:41:01;94225.53;;;1.24;68.98
36932;BME280;22847;42.654;23.370;2023-01-26T12:43:49;94424.72;;;2.46;68.39
36932;BME280;22847;42.654;23.370;2023-01-26T12:46:17;94469.38;;;2.33;70.38
36932;BME280;22847;42.654;23.370;2023-01-26T12:48:52;94185.53;;;0.41;70.99
36932;BME280;22847;42.654;23.370;2023-01-26T12:51:24;94468.94;;;2.39;71.06
36932;BME280;22847;42.654;23.370;2023-01-26T12:53:59;94229.72;;;1.12;70.28
36932;BME280;22847;42.654;23.370;2023-01-26T12:56:43;94514.63;;;2.75;70.17
36932;BME280;22847;42.654;23.370;2023-01-26T12:59:22;94516.78;;;3.06;69.45
36932;BME280;22847;42.654;23.370;2023-01-26T13:01:51;94454.25;;;3.04;69.29
36932;BME280;22847;42.654;23.370;2023-01-26T13:04:16;94451.88;;;2.25;71.34
36932;BME280;22847;42.654;23.370;2023-01-26T13:06:43;94473.63;;;2.59;71.21
36932;BME280;22847;42.654;23.370;2023-01-26T13:09:24;94504.31;;;2.75;71.10
36932;BME280;22847;42.654;23.370;2023-01-26T13:11:54;94495.56;;;2.64;71.66
36932;BME280;22847;42.654;23.370;2023-01-26T13:24:58;94504.28;;;2.49;72.07
36932;BME280;22847;42.654;23.370;2023-01-26T13:27:54;94453.47;;;2.65;71.77
36932;BME280;22847;42.654;23.370;2023-01-26T13:35:12;94446.13;;;2.85;71.26
36932;BME280;22847;42.654;23.370;2023-01-26T13:40:34;94443.25;;;2.77;71.21
36932;BME280;22847;42.654;23.370;2023-01-26T13:48:13;94424.91;;;2.94;70.24
36932;BME280;22847;42.654;23.370;2023-01-26T13:50:40;94429.44;;;2.90;70.95
36932;BME280;22847;42.654;23.370;2023-01-26T13:55:57;94336.75;;;2.16;69.96
36932;BME280;22847;42.654;23.370;2023-01-26T13:58:23;94385.41;;;3.19;69.14
36932;BME280;22847;42.654;23.370;2023-01-26T14:01:10;94415.53;;;2.93;70.61
36932;BME280;22847;42.654;23.370;2023-01-26T14:03:36;94395.13;;;3.39;69.18
36932;BME280;22847;42.654;23.370;2023-01-26T14:06:19;94385.31;;;3.07;69.52
36932;BME280;22847;42.654;23.370;2023-01-26T14:08:54;94384.91;;;3.13;69.58
36932;BME280;22847;42.654;23.370;2023-01-26T14:11:25;94431.88;;;3.17;69.53
36932;BME280;22847;42.654;23.370;2023-01-26T14:13:53;94240.66;;;2.17;69.33
36932;BME280;22847;42.654;23.370;2023-01-26T14:16:33;94384.34;;;3.21;68.42
36932;BME280;22847;42.654;23.370;2023-01-26T14:21:43;94390.41;;;3.33;69.14
36932;BME280;22847;42.654;23.370;2023-01-26T14:24:09;94396.25;;;2.98;69.10
36932;BME280;22847;42.654;23.370;2023-01-26T14:26:34;94311.44;;;1.97;70.90